createdAt,value
2022-09-01T00:09:55.386Z,60
2022-09-01T00:29:57.065Z,61
2022-09-01T00:39:58.076Z,61
2022-09-01T00:49:58.985Z,61
2022-09-01T00:59:59.212Z,62
2022-09-01T01:09:59.868Z,63
2022-09-01T01:19:59.988Z,63
2022-09-01T01:30:00.086Z,64
2022-09-01T01:40:00.826Z,65
2022-09-01T01:50:01.708Z,65
2022-09-01T02:00:02.676Z,65
2022-09-01T02:30:04.850Z,66
2022-09-01T02:40:05.561Z,67
2022-09-01T02:50:06.577Z,67
2022-09-01T03:00:07.362Z,68
2022-09-01T03:10:08.102Z,68
2022-09-01T03:20:09.168Z,68
2022-09-01T03:30:09.985Z,69
2022-09-01T03:40:10.738Z,69
2022-09-01T03:50:10.785Z,69
2022-09-01T04:00:11.216Z,69
2022-09-01T04:10:12.027Z,69
2022-09-01T04:20:12.140Z,69
2022-09-01T04:30:12.633Z,70
2022-09-01T04:40:12.872Z,70
2022-09-01T04:50:13.392Z,70
2022-09-01T05:00:14.029Z,71
2022-09-01T05:10:15.064Z,71
2022-09-01T05:20:15.323Z,71
2022-09-01T05:30:16.390Z,71
2022-09-01T05:40:17.282Z,71
2022-09-01T05:50:17.499Z,70
2022-09-01T06:00:18.042Z,70
2022-09-01T06:10:18.287Z,69
2022-09-01T06:20:19.175Z,67
2022-09-01T06:30:23.373Z,67
2022-09-01T07:00:21.928Z,67
2022-09-01T07:10:22.726Z,66
2022-09-01T07:20:23.449Z,65
2022-09-01T07:30:24.049Z,63
2022-09-01T08:00:24.868Z,61
2022-09-01T08:10:25.390Z,60
2022-09-01T08:20:25.527Z,59
2022-09-01T08:30:25.841Z,58
2022-09-01T08:40:27.016Z,56
2022-09-01T08:50:27.808Z,54
2022-09-01T09:00:27.987Z,53
2022-09-01T09:10:28.869Z,50
2022-09-01T09:20:29.840Z,50
2022-09-01T09:30:30.207Z,48
2022-09-01T09:40:36.572Z,48
2022-09-01T09:50:32.116Z,46
2022-09-01T10:00:32.869Z,47
2022-09-01T10:10:33.206Z,47
2022-09-01T10:20:33.911Z,45
2022-09-01T10:30:34.571Z,45
2022-09-01T10:40:35.204Z,45
2022-09-01T10:50:35.794Z,46
2022-09-01T11:00:36.520Z,46
2022-09-01T11:10:36.346Z,43
2022-09-01T11:20:36.747Z,43
2022-09-01T11:40:37.899Z,43
2022-09-01T11:50:38.778Z,43
2022-09-01T12:00:39.751Z,44
2022-09-01T12:10:40.057Z,44
2022-09-01T12:20:40.583Z,42
2022-09-01T12:30:40.826Z,41
2022-09-01T12:40:41.456Z,42
2022-09-01T13:00:42.811Z,40
2022-09-01T13:10:43.512Z,38
2022-09-01T13:20:44.231Z,39
2022-09-01T13:30:45.158Z,39
2022-09-01T13:51:14.853Z,37
2022-09-01T14:10:47.635Z,37
2022-09-01T14:20:47.890Z,37
2022-09-01T14:30:48.010Z,37
2022-09-01T14:40:48.654Z,37
2022-09-01T14:50:48.998Z,36
2022-09-01T15:00:49.850Z,36
2022-09-01T15:10:50.037Z,37
2022-09-01T15:20:50.638Z,37
2022-09-01T15:30:51.004Z,37
2022-09-01T15:40:55.279Z,37
2022-09-01T15:50:51.994Z,37
2022-09-01T16:00:52.249Z,38
2022-09-01T16:10:53.008Z,38
2022-09-01T16:20:53.245Z,38
2022-09-01T16:30:54.126Z,38
2022-09-01T16:40:54.486Z,39
2022-09-01T16:50:55.446Z,40
2022-09-01T17:10:56.548Z,42
2022-09-01T17:20:58.077Z,42
2022-09-01T17:30:58.157Z,42
2022-09-01T17:40:58.736Z,43
2022-09-01T17:51:01.175Z,44
2022-09-01T18:01:00.194Z,45
2022-09-01T18:11:00.941Z,45
2022-09-01T18:21:01.623Z,46
2022-09-01T18:31:02.603Z,46
2022-09-01T18:41:02.633Z,47
2022-09-01T18:51:03.264Z,48
2022-09-01T19:21:05.214Z,49
2022-09-01T19:31:06.105Z,50
2022-09-01T19:51:07.316Z,52
2022-09-01T20:01:08.322Z,52
2022-09-01T20:11:09.156Z,53
2022-09-01T20:21:09.580Z,53
2022-09-01T20:31:10.398Z,53
2022-09-01T20:41:11.215Z,54
2022-09-01T20:51:11.488Z,55
2022-09-01T21:01:14.193Z,55
2022-09-01T21:11:12.810Z,55
2022-09-01T21:21:13.062Z,56
2022-09-01T21:31:13.477Z,56
2022-09-01T21:41:13.662Z,56
2022-09-01T21:51:14.445Z,57
2022-09-01T22:01:14.811Z,58
2022-09-01T22:11:15.266Z,58
2022-09-01T22:21:15.391Z,58
2022-09-01T22:41:16.259Z,59
2022-09-01T22:51:16.516Z,59
2022-09-01T23:01:16.738Z,59
2022-09-01T23:11:17.397Z,59
2022-09-01T23:21:18.027Z,59
2022-09-01T23:31:18.334Z,59
2022-09-01T23:41:18.924Z,59
2022-09-01T23:51:19.565Z,59
